createdAt,value
2022-08-05T00:00:16.780Z,20.53
2022-08-05T00:02:50.595Z,20.31
2022-08-05T00:06:02.110Z,20.14
2022-08-05T00:08:34.835Z,20.14
2022-08-05T00:11:00.349Z,19.80
2022-08-05T00:13:38.153Z,19.88
2022-08-05T00:16:09.412Z,19.80
2022-08-05T00:18:39.195Z,19.63
2022-08-05T00:21:08.580Z,19.69
2022-08-05T00:23:45.881Z,19.70
2022-08-05T00:26:22.658Z,19.63
2022-08-05T00:28:51.495Z,19.50
2022-08-05T00:31:53.135Z,19.62
2022-08-05T00:34:53.818Z,19.60
2022-08-05T00:37:10.347Z,19.49
2022-08-05T00:39:44.146Z,19.47
2022-08-05T00:42:33.264Z,19.42
2022-08-05T00:45:01.223Z,19.39
2022-08-05T00:47:29.313Z,19.45
2022-08-05T00:50:16.960Z,19.46
2022-08-05T00:52:45.394Z,19.34
2022-08-05T00:55:14.909Z,19.22
2022-08-05T00:57:58.521Z,19.33
2022-08-05T01:00:27.988Z,19.23
2022-08-05T01:02:56.078Z,19.23
2022-08-05T01:05:24.177Z,19.23
2022-08-05T01:08:40.332Z,19.49
2022-08-05T01:10:48.115Z,19.63
2022-08-05T01:13:27.506Z,19.56
2022-08-05T01:16:28.186Z,19.49
2022-08-05T01:19:02.048Z,19.49
2022-08-05T01:21:55.138Z,19.71
2022-08-05T01:24:36.671Z,19.77
2022-08-05T01:27:17.613Z,19.67
2022-08-05T01:29:53.624Z,19.83
2022-08-05T01:32:27.660Z,19.91
2022-08-05T01:34:59.599Z,19.80
2022-08-05T01:37:37.183Z,19.93
2022-08-05T01:40:13.576Z,20.20
2022-08-05T01:42:47.052Z,20.25
2022-08-05T01:45:17.249Z,20.20
2022-08-05T01:47:48.203Z,20.12
2022-08-05T01:50:20.169Z,19.97
2022-08-05T01:53:00.928Z,20.17
2022-08-05T01:55:31.968Z,20.32
2022-08-05T01:58:29.946Z,20.21
2022-08-05T02:00:58.627Z,20.07
2022-08-05T02:03:31.801Z,19.97
2022-08-05T02:06:03.657Z,20.25
2022-08-05T02:08:58.126Z,20.03
2022-08-05T02:11:33.169Z,19.85
2022-08-05T02:14:06.403Z,19.59
2022-08-05T02:16:42.869Z,19.43
2022-08-05T02:19:18.851Z,19.47
2022-08-05T02:21:52.241Z,19.52
2022-08-05T02:24:24.103Z,19.23
2022-08-05T02:26:57.312Z,19.27
2022-08-05T02:29:58.995Z,19.19
2022-08-05T02:32:24.276Z,19.05
2022-08-05T02:35:02.163Z,18.64
2022-08-05T02:37:47.773Z,18.82
2022-08-05T02:40:24.273Z,19.03
2022-08-05T02:42:55.054Z,19.12
2022-08-05T02:45:23.959Z,19.24
2022-08-05T02:48:06.747Z,19.33
2022-08-05T02:50:43.919Z,19.52
2022-08-05T02:53:18.636Z,19.33
2022-08-05T02:55:54.507Z,19.32
2022-08-05T02:58:30.122Z,19.37
2022-08-05T03:01:02.151Z,19.40
2022-08-05T03:03:33.861Z,19.42
2022-08-05T03:06:54.785Z,19.33
2022-08-05T03:09:15.964Z,19.46
2022-08-05T03:11:58.019Z,19.63
2022-08-05T03:14:26.701Z,19.42
2022-08-05T03:16:54.668Z,19.64
2022-08-05T03:19:34.054Z,19.84
2022-08-05T03:22:04.969Z,19.80
2022-08-05T03:24:47.094Z,19.85
2022-08-05T03:27:17.892Z,19.91
2022-08-05T03:30:08.275Z,20.18
2022-08-05T03:32:33.804Z,20.25
2022-08-05T03:35:05.537Z,19.80
2022-08-05T03:37:46.382Z,19.77
2022-08-05T03:40:24.066Z,19.80
2022-08-05T03:42:53.320Z,19.64
2022-08-05T03:45:23.673Z,19.75
2022-08-05T03:47:51.676Z,19.85
2022-08-05T03:50:29.680Z,19.87
2022-08-05T03:55:00.535Z,19.84
2022-08-05T03:56:11.574Z,19.74
2022-08-05T03:58:43.589Z,19.87
2022-08-05T04:01:14.909Z,19.83
2022-08-05T04:04:05.458Z,19.87
2022-08-05T04:06:35.516Z,19.90
2022-08-05T04:09:05.951Z,19.90
2022-08-05T04:11:47.107Z,19.74
2022-08-05T04:14:18.102Z,19.71
2022-08-05T04:16:46.599Z,19.64
2022-08-05T04:19:15.613Z,19.53
2022-08-05T04:22:05.736Z,19.46
2022-08-05T04:24:34.549Z,19.33
2022-08-05T04:27:02.359Z,19.12
2022-08-05T04:29:30.347Z,19.15
2022-08-05T04:32:00.929Z,19.15
2022-08-05T04:34:32.647Z,19.30
2022-08-05T04:37:04.027Z,19.27
2022-08-05T04:39:35.350Z,19.59
2022-08-05T04:42:03.859Z,19.74
2022-08-05T04:44:31.696Z,19.83
2022-08-05T04:46:59.625Z,19.87
2022-08-05T04:49:38.882Z,19.90
2022-08-05T04:52:16.950Z,19.85
2022-08-05T04:54:46.585Z,19.97
2022-08-05T04:57:14.420Z,20.00
2022-08-05T04:59:42.286Z,19.97
2022-08-05T05:02:37.701Z,19.74
2022-08-05T05:05:16.538Z,19.81
2022-08-05T05:07:56.554Z,19.73
2022-08-05T05:10:29.587Z,19.63
2022-08-05T05:12:57.833Z,19.71
2022-08-05T05:15:56.953Z,19.73
2022-08-05T05:18:31.472Z,19.67
2022-08-05T05:21:03.469Z,19.83
2022-08-05T05:24:01.995Z,19.94
2022-08-05T05:26:28.590Z,19.83
2022-08-05T05:29:01.376Z,20.20
2022-08-05T05:31:35.719Z,20.56
2022-08-05T05:34:02.233Z,20.56
2022-08-05T05:36:31.216Z,20.59
2022-08-05T05:39:03.890Z,20.44
2022-08-05T05:41:39.971Z,20.34
2022-08-05T05:44:36.091Z,20.48
2022-08-05T05:46:57.921Z,20.65
2022-08-05T05:49:26.178Z,20.72
2022-08-05T05:51:54.351Z,20.10
2022-08-05T05:54:35.466Z,20.39
2022-08-05T05:57:13.530Z,20.42
2022-08-05T05:59:41.821Z,20.56
2022-08-05T06:02:11.152Z,20.77
2022-08-05T06:04:38.993Z,20.75
2022-08-05T06:07:06.874Z,20.87
2022-08-05T06:09:59.945Z,20.62
2022-08-05T06:12:27.649Z,20.69
2022-08-05T06:14:56.417Z,20.62
2022-08-05T06:17:31.026Z,20.46
2022-08-05T06:19:59.546Z,20.48
2022-08-05T06:22:29.908Z,20.25
2022-08-05T06:24:59.739Z,20.26
2022-08-05T06:28:11.890Z,20.24
2022-08-05T06:30:19.895Z,20.52
2022-08-05T06:32:50.564Z,20.18
2022-08-05T06:36:04.074Z,20.28
2022-08-05T06:38:11.218Z,19.83
2022-08-05T06:40:42.232Z,19.74
2022-08-05T06:43:57.576Z,19.81
2022-08-05T06:46:07.000Z,19.95
2022-08-05T06:48:53.098Z,19.67
2022-08-05T06:51:30.120Z,19.42
2022-08-05T06:53:59.848Z,19.56
2022-08-05T06:56:29.938Z,19.83
2022-08-05T06:59:01.260Z,19.64
2022-08-05T07:01:32.260Z,19.81
2022-08-05T07:04:03.016Z,19.64
2022-08-05T07:06:31.946Z,19.77
2022-08-05T07:09:04.252Z,19.20
2022-08-05T07:11:37.104Z,19.02
2022-08-05T07:14:30.342Z,19.08
2022-08-05T07:17:58.676Z,18.67
2022-08-05T07:22:37.086Z,18.69
2022-08-05T07:25:22.561Z,18.57
2022-08-05T07:28:02.321Z,18.36
2022-08-05T07:30:34.703Z,18.34
2022-08-05T07:33:15.639Z,18.52
2022-08-05T07:36:03.728Z,18.73
2022-08-05T07:38:42.759Z,18.91
2022-08-05T07:41:35.152Z,18.89
2022-08-05T07:44:03.905Z,18.98
2022-08-05T07:46:33.795Z,19.39
2022-08-05T07:49:05.940Z,19.11
2022-08-05T07:51:40.842Z,19.16
2022-08-05T07:54:30.821Z,18.91
2022-08-05T07:57:41.711Z,18.64
2022-08-05T07:59:52.332Z,18.31
2022-08-05T08:02:30.797Z,18.11
2022-08-05T08:05:14.911Z,18.18
2022-08-05T08:07:59.640Z,18.24
2022-08-05T08:10:28.890Z,18.06
2022-08-05T08:12:58.569Z,18.21
2022-08-05T08:16:34.423Z,18.16
2022-08-05T08:18:16.040Z,17.93
2022-08-05T08:21:02.241Z,18.13
2022-08-05T08:24:02.636Z,18.17
2022-08-05T08:26:27.038Z,18.11
2022-08-05T08:29:02.255Z,18.14
2022-08-05T08:31:47.367Z,18.17
2022-08-05T08:34:16.333Z,18.07
2022-08-05T08:36:54.743Z,17.99
2022-08-05T08:39:24.832Z,18.00
2022-08-05T08:42:00.088Z,17.96
2022-08-05T08:45:24.013Z,18.09
2022-08-05T08:48:06.915Z,18.13
2022-08-05T08:50:30.674Z,18.88
2022-08-05T08:53:07.870Z,19.15
2022-08-05T08:56:02.948Z,19.19
2022-08-05T08:58:43.253Z,18.68
2022-08-05T09:01:17.504Z,18.65
2022-08-05T09:03:55.221Z,18.88
2022-08-05T09:06:29.629Z,18.81
2022-08-05T09:08:58.968Z,18.68
2022-08-05T09:11:51.135Z,18.73
2022-08-05T09:14:57.503Z,19.03
2022-08-05T09:17:04.881Z,19.16
2022-08-05T09:20:02.004Z,19.53
2022-08-05T09:22:32.035Z,19.67
2022-08-05T09:25:14.073Z,19.91
2022-08-05T09:28:04.890Z,19.85
2022-08-05T09:30:34.719Z,19.83
2022-08-05T09:33:03.661Z,20.12
2022-08-05T09:35:34.095Z,20.12
2022-08-05T09:38:18.416Z,19.91
2022-08-05T09:40:53.870Z,20.04
2022-08-05T09:43:41.104Z,20.04
2022-08-05T09:46:27.775Z,20.00
2022-08-05T09:49:08.064Z,19.67
2022-08-05T09:51:50.060Z,19.95
2022-08-05T09:54:21.145Z,20.01
2022-08-05T09:56:57.630Z,20.44
2022-08-05T09:59:29.489Z,20.77
2022-08-05T10:02:03.466Z,20.69
2022-08-05T10:04:38.275Z,20.85
2022-08-05T10:07:20.405Z,20.75
2022-08-05T10:10:04.215Z,20.57
2022-08-05T10:12:50.078Z,20.31
2022-08-05T10:15:26.614Z,20.45
2022-08-05T10:18:12.715Z,20.82
2022-08-05T10:20:44.086Z,21.13
2022-08-05T10:23:34.677Z,21.34
2022-08-05T10:26:07.038Z,21.84
2022-08-05T10:28:36.470Z,22.08
2022-08-05T10:32:53.602Z,22.66
2022-08-05T10:33:54.708Z,23.00
2022-08-05T10:36:23.602Z,22.96
2022-08-05T10:39:05.019Z,23.07
2022-08-05T10:41:46.590Z,22.98
2022-08-05T10:44:19.241Z,22.70
2022-08-05T10:46:51.009Z,22.19
2022-08-05T10:49:27.590Z,22.19
2022-08-05T10:52:03.311Z,22.59
2022-08-05T10:55:04.804Z,22.86
2022-08-05T10:57:34.044Z,23.95
2022-08-05T11:00:17.877Z,24.89
2022-08-05T11:03:24.317Z,24.99
2022-08-05T11:06:16.115Z,25.80
2022-08-05T11:09:24.160Z,27.62
2022-08-05T11:12:03.065Z,26.67
2022-08-05T11:14:57.562Z,27.51
2022-08-05T11:17:57.318Z,27.23
2022-08-05T11:20:52.086Z,26.78
2022-08-05T11:24:05.750Z,27.22
2022-08-05T11:26:29.287Z,28.56
2022-08-05T11:29:12.221Z,28.84
2022-08-05T11:31:56.714Z,27.97
2022-08-05T11:34:51.349Z,27.49
2022-08-05T11:38:30.028Z,27.26
2022-08-05T11:41:13.824Z,26.93
2022-08-05T11:44:06.655Z,27.81
2022-08-05T11:47:09.218Z,28.43
2022-08-05T11:49:27.658Z,28.99
2022-08-05T11:51:57.671Z,28.16
2022-08-05T11:54:33.814Z,28.09
2022-08-05T11:57:07.561Z,28.23
2022-08-05T11:59:49.557Z,28.19
2022-08-05T12:02:29.751Z,27.23
2022-08-05T12:05:00.317Z,27.31
2022-08-05T12:08:03.330Z,27.65
2022-08-05T12:10:24.938Z,28.35
2022-08-05T12:13:15.578Z,28.46
2022-08-05T12:15:45.091Z,28.18
2022-08-05T12:18:18.852Z,28.74
2022-08-05T12:20:48.536Z,27.22
2022-08-05T12:23:17.390Z,27.20
2022-08-05T12:25:53.462Z,27.97
2022-08-05T12:28:36.686Z,28.72
2022-08-05T12:31:05.912Z,27.76
2022-08-05T12:33:36.574Z,27.12
2022-08-05T12:36:09.133Z,26.55
2022-08-05T12:38:39.982Z,27.60
2022-08-05T12:41:13.151Z,27.90
2022-08-05T12:43:56.107Z,28.35
2022-08-05T12:46:29.562Z,28.57
2022-08-05T12:49:13.182Z,29.21
2022-08-05T12:52:13.049Z,29.20
2022-08-05T12:54:37.170Z,28.57
2022-08-05T12:57:09.298Z,28.36
2022-08-05T13:00:08.452Z,28.23
2022-08-05T13:02:36.643Z,28.51
2022-08-05T13:05:08.301Z,28.04
2022-08-05T13:07:59.208Z,27.90
2022-08-05T13:10:28.629Z,27.37
2022-08-05T13:12:58.061Z,27.81
2022-08-05T13:15:41.310Z,26.49
2022-08-05T13:18:19.826Z,26.68
2022-08-05T13:20:50.353Z,25.94
2022-08-05T13:23:22.658Z,25.63
2022-08-05T13:25:59.627Z,25.11
2022-08-05T13:28:29.271Z,24.36
2022-08-05T13:31:00.084Z,23.55
2022-08-05T13:34:22.197Z,23.12
2022-08-05T13:36:27.952Z,23.12
2022-08-05T13:38:56.986Z,22.81
2022-08-05T13:41:35.768Z,23.01
2022-08-05T13:44:06.053Z,23.39
2022-08-05T13:46:43.734Z,23.82
2022-08-05T13:49:19.047Z,23.89
2022-08-05T13:51:48.386Z,23.28
2022-08-05T13:54:21.233Z,23.78
2022-08-05T13:56:53.151Z,24.07
2022-08-05T13:59:24.106Z,23.63
2022-08-05T14:01:58.383Z,23.72
2022-08-05T14:04:49.827Z,23.83
2022-08-05T14:07:25.544Z,23.14
2022-08-05T14:10:12.190Z,23.56
2022-08-05T14:12:40.233Z,23.95
2022-08-05T14:16:08.319Z,23.32
2022-08-05T14:18:00.834Z,23.87
2022-08-05T14:20:29.655Z,24.12
2022-08-05T14:22:59.286Z,24.31
2022-08-05T14:25:28.121Z,24.16
2022-08-05T14:27:56.773Z,24.30
2022-08-05T14:30:28.125Z,24.30
2022-08-05T14:32:57.208Z,23.59
2022-08-05T14:35:37.327Z,23.90
2022-08-05T14:38:32.290Z,24.00
2022-08-05T14:41:06.296Z,23.99
2022-08-05T14:43:57.456Z,23.96
2022-08-05T14:46:28.885Z,24.09
2022-08-05T14:48:59.436Z,22.84
2022-08-05T14:51:30.913Z,23.15
2022-08-05T14:54:26.703Z,23.46
2022-08-05T14:56:48.821Z,24.00
2022-08-05T14:59:21.247Z,24.07
2022-08-05T15:01:49.934Z,24.33
2022-08-05T15:04:20.456Z,23.93
2022-08-05T15:06:49.773Z,24.20
2022-08-05T15:09:51.658Z,24.26
2022-08-05T15:12:08.887Z,24.37
2022-08-05T15:14:48.186Z,24.34
2022-08-05T15:17:47.202Z,23.90
2022-08-05T15:20:07.577Z,23.42
2022-08-05T15:22:37.695Z,23.22
2022-08-05T15:25:11.703Z,23.15
2022-08-05T15:27:43.042Z,23.35
2022-08-05T15:30:20.572Z,23.31
2022-08-05T15:32:50.444Z,23.27
2022-08-05T15:35:18.509Z,23.39
2022-08-05T15:38:33.857Z,23.22
2022-08-05T15:40:58.491Z,23.49
2022-08-05T15:43:27.059Z,23.45
2022-08-05T15:46:00.131Z,23.63
2022-08-05T15:48:29.904Z,24.00
2022-08-05T15:51:01.543Z,23.80
2022-08-05T15:53:38.425Z,23.95
2022-08-05T15:56:20.826Z,24.03
2022-08-05T15:58:49.030Z,23.59
2022-08-05T16:01:18.751Z,23.42
2022-08-05T16:03:50.304Z,23.63
2022-08-05T16:06:20.396Z,23.38
2022-08-05T16:08:51.288Z,23.41
2022-08-05T16:11:40.198Z,23.31
2022-08-05T16:14:17.472Z,23.19
2022-08-05T16:16:46.702Z,23.15
2022-08-05T16:19:19.250Z,23.28
2022-08-05T16:22:03.091Z,23.18
2022-08-05T16:24:41.612Z,23.04
2022-08-05T16:27:46.905Z,22.93
2022-08-05T16:30:13.336Z,22.88
2022-08-05T16:32:51.287Z,22.78
2022-08-05T16:35:28.485Z,22.67
2022-08-05T16:38:15.709Z,22.84
2022-08-05T16:40:51.926Z,22.81
2022-08-05T16:43:25.949Z,22.90
2022-08-05T16:46:03.581Z,22.71
2022-08-05T16:48:36.643Z,22.74
2022-08-05T16:51:09.112Z,22.80
2022-08-05T16:54:03.854Z,22.88
2022-08-05T16:56:29.118Z,23.11
2022-08-05T16:58:59.042Z,22.94
2022-08-05T17:01:53.115Z,22.68
2022-08-05T17:04:16.812Z,22.36
2022-08-05T17:06:53.258Z,22.35
2022-08-05T17:09:21.700Z,22.28
2022-08-05T17:11:55.973Z,22.16
2022-08-05T17:14:37.649Z,22.02
2022-08-05T17:17:14.621Z,22.12
2022-08-05T17:19:45.302Z,22.13
2022-08-05T17:22:24.942Z,22.16
2022-08-05T17:24:57.467Z,22.13
2022-08-05T17:27:27.164Z,21.94
2022-08-05T17:30:00.644Z,22.13
2022-08-05T17:32:32.161Z,22.06
2022-08-05T17:35:02.211Z,21.95
2022-08-05T17:37:40.803Z,21.96
2022-08-05T17:40:15.200Z,21.88
2022-08-05T17:42:50.442Z,22.06
2022-08-05T17:45:22.453Z,22.01
2022-08-05T17:47:54.951Z,21.86
2022-08-05T17:50:28.327Z,21.71
2022-08-05T17:52:58.830Z,21.61
2022-08-05T17:55:38.368Z,21.59
2022-08-05T17:58:11.026Z,21.48
2022-08-05T18:00:45.172Z,21.31
2022-08-05T18:03:39.255Z,21.37
2022-08-05T18:06:10.886Z,21.37
2022-08-05T18:08:44.274Z,21.67
2022-08-05T18:11:24.328Z,21.41
2022-08-05T18:14:03.626Z,21.26
2022-08-05T18:16:34.006Z,21.22
2022-08-05T18:19:02.460Z,21.35
2022-08-05T18:22:07.283Z,21.11
2022-08-05T18:24:18.353Z,21.16
2022-08-05T18:26:48.988Z,21.02
2022-08-05T18:29:17.026Z,20.73
2022-08-05T18:31:46.352Z,20.89
2022-08-05T18:34:17.707Z,20.72
2022-08-05T18:36:49.726Z,20.63
2022-08-05T18:39:41.973Z,20.66
2022-08-05T18:42:10.885Z,20.46
2022-08-05T18:44:49.361Z,20.57
2022-08-05T18:47:26.757Z,20.75
2022-08-05T18:50:12.905Z,20.73
2022-08-05T18:52:50.940Z,20.56
2022-08-05T18:55:21.721Z,20.34
2022-08-05T18:57:53.825Z,20.21
2022-08-05T19:00:28.605Z,20.20
2022-08-05T19:03:03.570Z,20.08
2022-08-05T19:06:12.177Z,20.12
2022-08-05T19:08:22.339Z,20.05
2022-08-05T19:10:59.733Z,19.91
2022-08-05T19:13:35.573Z,19.94
2022-08-05T19:16:28.468Z,19.78
2022-08-05T19:18:56.678Z,19.69
2022-08-05T19:21:27.673Z,19.70
2022-08-05T19:24:05.424Z,19.59
2022-08-05T19:26:54.087Z,19.49
2022-08-05T19:29:23.735Z,19.39
2022-08-05T19:31:55.039Z,19.29
2022-08-05T19:34:26.884Z,19.30
2022-08-05T19:36:54.739Z,19.27
2022-08-05T19:39:23.176Z,19.36
2022-08-05T19:42:06.487Z,19.15
2022-08-05T19:44:44.525Z,19.23
2022-08-05T19:47:15.250Z,18.91
2022-08-05T19:49:48.035Z,19.03
2022-08-05T19:52:31.189Z,18.96
2022-08-05T19:55:07.220Z,18.68
2022-08-05T19:58:19.634Z,18.64
2022-08-05T20:00:37.514Z,18.67
2022-08-05T20:03:08.953Z,18.55
2022-08-05T20:05:43.086Z,18.62
2022-08-05T20:08:11.479Z,18.30
2022-08-05T20:10:39.608Z,18.38
2022-08-05T20:13:12.134Z,18.36
2022-08-05T20:15:52.638Z,18.51
2022-08-05T20:18:33.767Z,18.45
2022-08-05T20:21:06.664Z,18.48
2022-08-05T20:23:39.226Z,18.29
2022-08-05T20:26:17.966Z,18.16
2022-08-05T20:28:48.490Z,18.10
2022-08-05T20:31:16.962Z,17.89
2022-08-05T20:33:45.472Z,17.86
2022-08-05T20:36:16.199Z,17.90
2022-08-05T20:38:54.537Z,17.86
2022-08-05T20:41:43.156Z,17.90
2022-08-05T20:44:29.857Z,17.68
2022-08-05T20:46:59.346Z,17.73
2022-08-05T20:49:28.079Z,17.63
2022-08-05T20:51:58.175Z,17.72
2022-08-05T20:54:55.241Z,17.75
2022-08-05T20:57:42.050Z,17.75
2022-08-05T21:00:19.846Z,17.66
2022-08-05T21:02:56.056Z,17.51
2022-08-05T21:05:25.059Z,17.27
2022-08-05T21:07:54.240Z,17.25
2022-08-05T21:10:23.896Z,17.49
2022-08-05T21:12:57.765Z,17.49
2022-08-05T21:15:37.059Z,17.48
2022-08-05T21:18:05.281Z,17.46
2022-08-05T21:20:34.352Z,17.45
2022-08-05T21:23:03.901Z,17.39
2022-08-05T21:25:33.654Z,17.42
2022-08-05T21:28:03.486Z,17.28
2022-08-05T21:30:31.508Z,17.12
2022-08-05T21:32:59.793Z,16.97
2022-08-05T21:35:55.956Z,16.98
2022-08-05T21:38:20.042Z,17.24
2022-08-05T21:40:47.951Z,17.00
2022-08-05T21:43:23.998Z,17.08
2022-08-05T21:45:57.867Z,17.17
2022-08-05T21:48:28.894Z,17.12
2022-08-05T21:50:57.463Z,17.06
2022-08-05T21:53:27.666Z,17.38
2022-08-05T21:56:04.781Z,17.62
2022-08-05T21:58:41.978Z,17.65
2022-08-05T22:01:10.903Z,17.59
2022-08-05T22:03:49.088Z,17.62
2022-08-05T22:06:23.109Z,17.62
2022-08-05T22:09:13.899Z,17.48
2022-08-05T22:11:46.978Z,17.14
2022-08-05T22:14:33.685Z,16.76
2022-08-05T22:17:06.542Z,16.63
2022-08-05T22:20:03.149Z,16.66
2022-08-05T22:22:27.615Z,16.80
2022-08-05T22:25:18.249Z,16.59
2022-08-05T22:28:09.658Z,16.59
2022-08-05T22:30:55.946Z,16.69
2022-08-05T22:33:55.797Z,16.60
2022-08-05T22:36:14.755Z,16.69
2022-08-05T22:38:43.929Z,16.50
2022-08-05T22:42:04.344Z,16.52
2022-08-05T22:44:08.272Z,16.43
2022-08-05T22:46:40.004Z,16.52
2022-08-05T22:49:23.566Z,16.39
2022-08-05T22:52:06.567Z,16.19
2022-08-05T22:54:36.146Z,16.18
2022-08-05T22:57:05.942Z,16.20
2022-08-05T22:59:43.767Z,16.18
2022-08-05T23:02:17.998Z,16.02
2022-08-05T23:04:51.988Z,16.10
2022-08-05T23:07:21.838Z,15.91
2022-08-05T23:09:57.307Z,15.72
2022-08-05T23:12:32.451Z,15.84
2022-08-05T23:15:01.267Z,15.82
2022-08-05T23:17:34.349Z,15.92
2022-08-05T23:20:10.234Z,15.89
2022-08-05T23:22:47.634Z,15.62
2022-08-05T23:25:52.051Z,15.85
2022-08-05T23:28:07.554Z,15.88
2022-08-05T23:30:39.690Z,15.64
2022-08-05T23:33:16.461Z,15.87
2022-08-05T23:35:50.930Z,16.15
2022-08-05T23:38:18.843Z,15.95
2022-08-05T23:40:50.185Z,15.92
2022-08-05T23:43:25.667Z,15.87
2022-08-05T23:46:05.226Z,15.99
2022-08-05T23:49:00.304Z,16.10
2022-08-05T23:51:53.920Z,16.01
2022-08-05T23:54:25.563Z,15.94
2022-08-05T23:56:54.661Z,16.10
2022-08-05T23:59:27.608Z,16.12
